sensor_id;sensor_type;location;lat;lon;timestamp;P1;durP1;ratioP1;P2;durP2;ratioP2
8317;SDS011;4196;48.926;8.964;2024-01-15T00:01:55;17.93;;;6.63;;
8317;SDS011;4196;48.926;8.964;2024-01-15T00:04:42;19.50;;;8.10;;
8317;SDS011;4196;48.926;8.964;2024-01-15T00:07:28;13.43;;;5.47;;
8317;SDS011;4196;48.926;8.964;2024-01-15T00:10:15;20.80;;;7.20;;
8317;SDS011;4196;48.926;8.964;2024-01-15T00:13:01;16.17;;;8.23;;
8317;SDS011;4196;48.926;8.964;2024-01-15T00:15:48;23.43;;;8.53;;
8317;SDS011;4196;48.926;8.964;2024-01-15T00:18:34;19.33;;;6.90;;
8317;SDS011;4196;48.926;8.964;2024-01-15T00:21:21;14.13;;;6.57;;
8317;SDS011;4196;48.926;8.964;2024-01-15T00:24:07;17.40;;;6.23;;
8317;SDS011;4196;48.926;8.964;2024-01-15T00:26:53;21.13;;;6.70;;
8317;SDS011;4196;48.926;8.964;2024-01-15T00:29:40;13.60;;;6.17;;
8317;SDS011;4196;48.926;8.964;2024-01-15T00:32:27;21.73;;;7.43;;
8317;SDS011;4196;48.926;8.964;2024-01-15T00:35:13;18.17;;;7.23;;
8317;SDS011;4196;48.926;8.964;2024-01-15T00:38:00;21.03;;;7.13;;
8317;SDS011;4196;48.926;8.964;2024-01-15T00:40:46;20.33;;;7.13;;
8317;SDS011;4196;48.926;8.964;2024-01-15T00:43:33;19.10;;;6.23;;
8317;SDS011;4196;48.926;8.964;2024-01-15T00:46:20;21.00;;;8.07;;
8317;SDS011;4196;48.926;8.964;2024-01-15T00:49:07;16.93;;;6.57;;
8317;SDS011;4196;48.926;8.964;2024-01-15T00:51:53;13.43;;;5.90;;
8317;SDS011;4196;48.926;8.964;2024-01-15T00:54:40;19.33;;;7.17;;
8317;SDS011;4196;48.926;8.964;2024-01-15T00:57:26;23.97;;;6.70;;
8317;SDS011;4196;48.926;8.964;2024-01-15T01:00:13;14.27;;;8.10;;
8317;SDS011;4196;48.926;8.964;2024-01-15T01:03:00;23.20;;;8.43;;
8317;SDS011;4196;48.926;8.964;2024-01-15T01:05:48;18.97;;;7.20;;
8317;SDS011;4196;48.926;8.964;2024-01-15T01:08:36;18.23;;;6.90;;
8317;SDS011;4196;48.926;8.964;2024-01-15T01:11:22;19.80;;;7.77;;
8317;SDS011;4196;48.926;8.964;2024-01-15T01:14:09;17.50;;;7.87;;
8317;SDS011;4196;48.926;8.964;2024-01-15T01:16:56;13.57;;;6.73;;
8317;SDS011;4196;48.926;8.964;2024-01-15T01:19:42;18.47;;;6.73;;
8317;SDS011;4196;48.926;8.964;2024-01-15T01:22:29;17.47;;;6.83;;
8317;SDS011;4196;48.926;8.964;2024-01-15T01:25:15;23.87;;;9.47;;
8317;SDS011;4196;48.926;8.964;2024-01-15T01:28:02;19.67;;;6.83;;
8317;SDS011;4196;48.926;8.964;2024-01-15T01:30:48;14.67;;;7.83;;
8317;SDS011;4196;48.926;8.964;2024-01-15T01:33:35;20.00;;;7.93;;
8317;SDS011;4196;48.926;8.964;2024-01-15T01:36:21;17.53;;;7.50;;
8317;SDS011;4196;48.926;8.964;2024-01-15T01:39:08;18.73;;;7.67;;
8317;SDS011;4196;48.926;8.964;2024-01-15T01:41:55;23.60;;;7.00;;
8317;SDS011;4196;48.926;8.964;2024-01-15T01:44:41;19.33;;;7.03;;
8317;SDS011;4196;48.926;8.964;2024-01-15T01:47:28;19.03;;;7.77;;
8317;SDS011;4196;48.926;8.964;2024-01-15T01:50:14;24.60;;;9.13;;
8317;SDS011;4196;48.926;8.964;2024-01-15T01:53:01;22.27;;;7.30;;
8317;SDS011;4196;48.926;8.964;2024-01-15T01:55:50;15.10;;;7.20;;
8317;SDS011;4196;48.926;8.964;2024-01-15T01:58:37;18.87;;;8.37;;
8317;SDS011;4196;48.926;8.964;2024-01-15T02:01:23;16.43;;;7.30;;
8317;SDS011;4196;48.926;8.964;2024-01-15T02:04:10;21.03;;;6.20;;
8317;SDS011;4196;48.926;8.964;2024-01-15T02:06:58;17.00;;;7.20;;
8317;SDS011;4196;48.926;8.964;2024-01-15T02:09:45;18.33;;;6.23;;
8317;SDS011;4196;48.926;8.964;2024-01-15T02:12:32;17.63;;;6.13;;
8317;SDS011;4196;48.926;8.964;2024-01-15T02:15:18;16.30;;;7.43;;
8317;SDS011;4196;48.926;8.964;2024-01-15T02:18:06;15.03;;;6.00;;
8317;SDS011;4196;48.926;8.964;2024-01-15T02:20:56;12.93;;;6.30;;
8317;SDS011;4196;48.926;8.964;2024-01-15T02:23:42;20.20;;;7.97;;
8317;SDS011;4196;48.926;8.964;2024-01-15T02:26:28;15.63;;;6.37;;
8317;SDS011;4196;48.926;8.964;2024-01-15T02:29:15;12.50;;;5.53;;
8317;SDS011;4196;48.926;8.964;2024-01-15T02:32:04;12.50;;;6.00;;
8317;SDS011;4196;48.926;8.964;2024-01-15T02:34:51;16.47;;;6.80;;
8317;SDS011;4196;48.926;8.964;2024-01-15T02:37:37;17.37;;;6.27;;
8317;SDS011;4196;48.926;8.964;2024-01-15T02:40:24;19.37;;;6.30;;
8317;SDS011;4196;48.926;8.964;2024-01-15T02:43:10;13.50;;;5.90;;
8317;SDS011;4196;48.926;8.964;2024-01-15T02:45:58;12.97;;;5.63;;
8317;SDS011;4196;48.926;8.964;2024-01-15T02:48:44;19.03;;;7.93;;
8317;SDS011;4196;48.926;8.964;2024-01-15T02:51:31;15.10;;;5.90;;
8317;SDS011;4196;48.926;8.964;2024-01-15T02:54:17;18.37;;;6.70;;
8317;SDS011;4196;48.926;8.964;2024-01-15T02:57:04;15.93;;;7.37;;
8317;SDS011;4196;48.926;8.964;2024-01-15T02:59:50;19.57;;;6.60;;
8317;SDS011;4196;48.926;8.964;2024-01-15T03:02:37;17.70;;;7.73;;
8317;SDS011;4196;48.926;8.964;2024-01-15T03:05:33;15.30;;;6.20;;
8317;SDS011;4196;48.926;8.964;2024-01-15T03:08:19;18.87;;;7.53;;
8317;SDS011;4196;48.926;8.964;2024-01-15T03:11:06;16.17;;;5.63;;
8317;SDS011;4196;48.926;8.964;2024-01-15T03:13:52;21.23;;;6.90;;
8317;SDS011;4196;48.926;8.964;2024-01-15T03:16:39;15.20;;;6.27;;
8317;SDS011;4196;48.926;8.964;2024-01-15T03:19:25;17.03;;;6.83;;
8317;SDS011;4196;48.926;8.964;2024-01-15T03:22:12;13.67;;;5.90;;
8317;SDS011;4196;48.926;8.964;2024-01-15T03:24:58;12.97;;;6.17;;
8317;SDS011;4196;48.926;8.964;2024-01-15T03:27:45;17.07;;;7.37;;
8317;SDS011;4196;48.926;8.964;2024-01-15T03:30:31;12.60;;;5.03;;
8317;SDS011;4196;48.926;8.964;2024-01-15T03:33:18;12.57;;;6.70;;
8317;SDS011;4196;48.926;8.964;2024-01-15T03:36:04;19.67;;;6.07;;
8317;SDS011;4196;48.926;8.964;2024-01-15T03:38:51;19.27;;;7.43;;
8317;SDS011;4196;48.926;8.964;2024-01-15T03:41:38;18.40;;;6.10;;
8317;SDS011;4196;48.926;8.964;2024-01-15T03:44:24;15.13;;;6.07;;
8317;SDS011;4196;48.926;8.964;2024-01-15T03:47:10;13.97;;;7.20;;
8317;SDS011;4196;48.926;8.964;2024-01-15T03:49:57;13.80;;;5.60;;
8317;SDS011;4196;48.926;8.964;2024-01-15T03:52:43;18.07;;;6.03;;
8317;SDS011;4196;48.926;8.964;2024-01-15T03:55:30;9.70;;;4.83;;
8317;SDS011;4196;48.926;8.964;2024-01-15T03:58:16;12.43;;;4.90;;
8317;SDS011;4196;48.926;8.964;2024-01-15T04:01:02;11.53;;;4.87;;
8317;SDS011;4196;48.926;8.964;2024-01-15T04:03:49;11.93;;;6.47;;
8317;SDS011;4196;48.926;8.964;2024-01-15T04:06:35;10.03;;;5.20;;
8317;SDS011;4196;48.926;8.964;2024-01-15T04:09:22;8.53;;;5.10;;
8317;SDS011;4196;48.926;8.964;2024-01-15T04:12:08;9.60;;;5.07;;
8317;SDS011;4196;48.926;8.964;2024-01-15T04:14:55;13.37;;;5.07;;
8317;SDS011;4196;48.926;8.964;2024-01-15T04:17:41;9.03;;;5.30;;
8317;SDS011;4196;48.926;8.964;2024-01-15T04:20:28;11.27;;;4.73;;
8317;SDS011;4196;48.926;8.964;2024-01-15T04:23:15;12.93;;;4.90;;
8317;SDS011;4196;48.926;8.964;2024-01-15T04:26:01;8.20;;;4.67;;
8317;SDS011;4196;48.926;8.964;2024-01-15T04:28:47;10.03;;;4.80;;
8317;SDS011;4196;48.926;8.964;2024-01-15T04:31:34;10.40;;;5.37;;
8317;SDS011;4196;48.926;8.964;2024-01-15T04:34:20;10.27;;;5.53;;
8317;SDS011;4196;48.926;8.964;2024-01-15T04:37:06;12.87;;;5.73;;
8317;SDS011;4196;48.926;8.964;2024-01-15T04:39:53;10.37;;;4.83;;
8317;SDS011;4196;48.926;8.964;2024-01-15T04:42:41;11.10;;;5.37;;
8317;SDS011;4196;48.926;8.964;2024-01-15T04:45:27;9.47;;;4.20;;
8317;SDS011;4196;48.926;8.964;2024-01-15T04:48:15;8.77;;;4.57;;
8317;SDS011;4196;48.926;8.964;2024-01-15T04:51:03;13.93;;;5.57;;
8317;SDS011;4196;48.926;8.964;2024-01-15T04:53:51;10.47;;;4.77;;
8317;SDS011;4196;48.926;8.964;2024-01-15T04:56:37;12.23;;;5.13;;
8317;SDS011;4196;48.926;8.964;2024-01-15T04:59:24;9.43;;;4.97;;
8317;SDS011;4196;48.926;8.964;2024-01-15T05:02:10;11.37;;;5.60;;
8317;SDS011;4196;48.926;8.964;2024-01-15T05:04:57;9.67;;;4.00;;
8317;SDS011;4196;48.926;8.964;2024-01-15T05:07:43;11.07;;;5.80;;
8317;SDS011;4196;48.926;8.964;2024-01-15T05:10:30;9.77;;;4.73;;
8317;SDS011;4196;48.926;8.964;2024-01-15T05:13:16;10.37;;;5.20;;
8317;SDS011;4196;48.926;8.964;2024-01-15T05:16:03;13.33;;;5.23;;
8317;SDS011;4196;48.926;8.964;2024-01-15T05:18:50;14.10;;;4.57;;
8317;SDS011;4196;48.926;8.964;2024-01-15T05:21:36;11.60;;;5.97;;
8317;SDS011;4196;48.926;8.964;2024-01-15T05:24:23;10.70;;;4.67;;
8317;SDS011;4196;48.926;8.964;2024-01-15T05:27:10;9.00;;;5.07;;
8317;SDS011;4196;48.926;8.964;2024-01-15T05:29:56;10.77;;;4.43;;
8317;SDS011;4196;48.926;8.964;2024-01-15T05:32:42;12.53;;;4.30;;
8317;SDS011;4196;48.926;8.964;2024-01-15T05:35:29;4.90;;;3.47;;
8317;SDS011;4196;48.926;8.964;2024-01-15T05:38:16;8.60;;;4.37;;
8317;SDS011;4196;48.926;8.964;2024-01-15T05:41:03;7.63;;;3.87;;
8317;SDS011;4196;48.926;8.964;2024-01-15T05:43:49;7.17;;;3.70;;
8317;SDS011;4196;48.926;8.964;2024-01-15T05:46:35;9.90;;;3.77;;
8317;SDS011;4196;48.926;8.964;2024-01-15T05:49:22;9.33;;;4.30;;
8317;SDS011;4196;48.926;8.964;2024-01-15T05:52:08;8.53;;;4.50;;
8317;SDS011;4196;48.926;8.964;2024-01-15T05:54:55;6.30;;;3.60;;
8317;SDS011;4196;48.926;8.964;2024-01-15T05:57:41;8.87;;;3.87;;
8317;SDS011;4196;48.926;8.964;2024-01-15T06:00:28;5.60;;;3.40;;
8317;SDS011;4196;48.926;8.964;2024-01-15T06:03:14;7.67;;;3.80;;
8317;SDS011;4196;48.926;8.964;2024-01-15T06:06:01;4.83;;;3.20;;
8317;SDS011;4196;48.926;8.964;2024-01-15T06:08:47;7.90;;;2.80;;
8317;SDS011;4196;48.926;8.964;2024-01-15T06:11:34;5.43;;;3.20;;
8317;SDS011;4196;48.926;8.964;2024-01-15T06:14:20;4.80;;;3.03;;
8317;SDS011;4196;48.926;8.964;2024-01-15T06:17:06;6.33;;;3.83;;
8317;SDS011;4196;48.926;8.964;2024-01-15T06:19:53;6.37;;;3.07;;
8317;SDS011;4196;48.926;8.964;2024-01-15T06:22:39;7.57;;;3.37;;
8317;SDS011;4196;48.926;8.964;2024-01-15T06:25:25;7.63;;;3.33;;
8317;SDS011;4196;48.926;8.964;2024-01-15T06:28:12;6.63;;;3.50;;
8317;SDS011;4196;48.926;8.964;2024-01-15T06:30:59;7.97;;;3.73;;
8317;SDS011;4196;48.926;8.964;2024-01-15T06:33:45;4.73;;;3.30;;
8317;SDS011;4196;48.926;8.964;2024-01-15T06:36:34;9.50;;;4.13;;
8317;SDS011;4196;48.926;8.964;2024-01-15T06:39:21;9.43;;;4.73;;
8317;SDS011;4196;48.926;8.964;2024-01-15T06:42:07;9.20;;;4.30;;
8317;SDS011;4196;48.926;8.964;2024-01-15T06:44:53;10.97;;;4.63;;
8317;SDS011;4196;48.926;8.964;2024-01-15T06:47:40;10.13;;;4.40;;
8317;SDS011;4196;48.926;8.964;2024-01-15T06:50:28;9.10;;;3.77;;
8317;SDS011;4196;48.926;8.964;2024-01-15T06:53:14;8.10;;;4.17;;
8317;SDS011;4196;48.926;8.964;2024-01-15T06:56:00;9.53;;;5.40;;
8317;SDS011;4196;48.926;8.964;2024-01-15T06:58:47;11.07;;;5.20;;
8317;SDS011;4196;48.926;8.964;2024-01-15T07:01:33;8.00;;;4.23;;
8317;SDS011;4196;48.926;8.964;2024-01-15T07:04:20;8.30;;;4.30;;
8317;SDS011;4196;48.926;8.964;2024-01-15T07:07:07;8.33;;;4.13;;
8317;SDS011;4196;48.926;8.964;2024-01-15T07:09:53;11.20;;;4.60;;
8317;SDS011;4196;48.926;8.964;2024-01-15T07:12:43;8.63;;;3.80;;
8317;SDS011;4196;48.926;8.964;2024-01-15T07:15:30;9.37;;;4.60;;
8317;SDS011;4196;48.926;8.964;2024-01-15T07:18:16;6.93;;;4.23;;
8317;SDS011;4196;48.926;8.964;2024-01-15T07:21:03;8.13;;;3.87;;
8317;SDS011;4196;48.926;8.964;2024-01-15T07:23:50;7.20;;;3.77;;
8317;SDS011;4196;48.926;8.964;2024-01-15T07:26:37;9.57;;;4.17;;
8317;SDS011;4196;48.926;8.964;2024-01-15T07:29:23;8.07;;;4.43;;
8317;SDS011;4196;48.926;8.964;2024-01-15T07:32:10;7.80;;;4.80;;
8317;SDS011;4196;48.926;8.964;2024-01-15T07:34:56;8.37;;;3.50;;
8317;SDS011;4196;48.926;8.964;2024-01-15T07:37:42;6.83;;;3.43;;
8317;SDS011;4196;48.926;8.964;2024-01-15T07:40:29;12.00;;;7.20;;
8317;SDS011;4196;48.926;8.964;2024-01-15T07:43:15;13.77;;;9.87;;
8317;SDS011;4196;48.926;8.964;2024-01-15T07:46:02;10.03;;;5.90;;
8317;SDS011;4196;48.926;8.964;2024-01-15T07:48:49;7.73;;;4.60;;
8317;SDS011;4196;48.926;8.964;2024-01-15T07:51:37;11.23;;;6.03;;
8317;SDS011;4196;48.926;8.964;2024-01-15T07:54:23;8.40;;;4.60;;
8317;SDS011;4196;48.926;8.964;2024-01-15T07:57:10;9.83;;;5.47;;
8317;SDS011;4196;48.926;8.964;2024-01-15T07:59:56;17.60;;;7.70;;
8317;SDS011;4196;48.926;8.964;2024-01-15T08:02:43;25.23;;;9.77;;
8317;SDS011;4196;48.926;8.964;2024-01-15T08:05:30;20.73;;;11.33;;
8317;SDS011;4196;48.926;8.964;2024-01-15T08:08:16;12.67;;;5.37;;
8317;SDS011;4196;48.926;8.964;2024-01-15T08:11:03;8.30;;;4.30;;
8317;SDS011;4196;48.926;8.964;2024-01-15T08:13:50;10.13;;;4.43;;
8317;SDS011;4196;48.926;8.964;2024-01-15T08:16:36;8.03;;;4.03;;
8317;SDS011;4196;48.926;8.964;2024-01-15T08:19:23;10.27;;;4.60;;
8317;SDS011;4196;48.926;8.964;2024-01-15T08:22:10;10.63;;;4.63;;
8317;SDS011;4196;48.926;8.964;2024-01-15T08:24:56;7.43;;;3.30;;
8317;SDS011;4196;48.926;8.964;2024-01-15T08:27:43;7.93;;;3.47;;
8317;SDS011;4196;48.926;8.964;2024-01-15T08:30:29;8.03;;;3.73;;
8317;SDS011;4196;48.926;8.964;2024-01-15T08:33:16;14.47;;;3.57;;
8317;SDS011;4196;48.926;8.964;2024-01-15T08:36:07;8.73;;;5.03;;
8317;SDS011;4196;48.926;8.964;2024-01-15T08:38:55;7.70;;;3.93;;
8317;SDS011;4196;48.926;8.964;2024-01-15T08:41:41;8.00;;;4.07;;
8317;SDS011;4196;48.926;8.964;2024-01-15T08:44:27;7.90;;;3.93;;
8317;SDS011;4196;48.926;8.964;2024-01-15T08:47:14;9.63;;;3.60;;
8317;SDS011;4196;48.926;8.964;2024-01-15T08:50:00;4.90;;;2.57;;
8317;SDS011;4196;48.926;8.964;2024-01-15T08:52:46;8.13;;;3.57;;
8317;SDS011;4196;48.926;8.964;2024-01-15T08:55:33;8.83;;;4.97;;
8317;SDS011;4196;48.926;8.964;2024-01-15T08:58:20;6.10;;;3.20;;
8317;SDS011;4196;48.926;8.964;2024-01-15T09:01:06;8.80;;;4.77;;
8317;SDS011;4196;48.926;8.964;2024-01-15T09:03:56;5.93;;;2.90;;
8317;SDS011;4196;48.926;8.964;2024-01-15T09:06:44;7.43;;;3.80;;
8317;SDS011;4196;48.926;8.964;2024-01-15T09:09:33;4.20;;;2.73;;
8317;SDS011;4196;48.926;8.964;2024-01-15T09:12:20;5.27;;;2.83;;
8317;SDS011;4196;48.926;8.964;2024-01-15T09:15:08;4.43;;;3.33;;
8317;SDS011;4196;48.926;8.964;2024-01-15T09:17:55;7.40;;;3.53;;
8317;SDS011;4196;48.926;8.964;2024-01-15T09:20:43;6.77;;;3.87;;
8317;SDS011;4196;48.926;8.964;2024-01-15T09:23:30;6.60;;;3.67;;
8317;SDS011;4196;48.926;8.964;2024-01-15T09:26:16;5.57;;;3.03;;
8317;SDS011;4196;48.926;8.964;2024-01-15T09:29:03;3.87;;;2.93;;
8317;SDS011;4196;48.926;8.964;2024-01-15T09:31:50;5.17;;;2.73;;
8317;SDS011;4196;48.926;8.964;2024-01-15T09:34:37;5.83;;;3.30;;
8317;SDS011;4196;48.926;8.964;2024-01-15T09:37:24;6.07;;;2.70;;
8317;SDS011;4196;48.926;8.964;2024-01-15T09:40:31;7.53;;;2.73;;
8317;SDS011;4196;48.926;8.964;2024-01-15T09:43:19;4.63;;;2.80;;
8317;SDS011;4196;48.926;8.964;2024-01-15T09:46:06;5.47;;;2.50;;
8317;SDS011;4196;48.926;8.964;2024-01-15T09:48:53;5.20;;;2.73;;
8317;SDS011;4196;48.926;8.964;2024-01-15T09:51:39;5.67;;;2.40;;
8317;SDS011;4196;48.926;8.964;2024-01-15T09:54:26;4.60;;;2.73;;
8317;SDS011;4196;48.926;8.964;2024-01-15T09:57:16;4.43;;;2.40;;
8317;SDS011;4196;48.926;8.964;2024-01-15T10:00:05;5.43;;;3.33;;
8317;SDS011;4196;48.926;8.964;2024-01-15T10:02:57;5.07;;;2.13;;
8317;SDS011;4196;48.926;8.964;2024-01-15T10:05:46;7.10;;;3.57;;
8317;SDS011;4196;48.926;8.964;2024-01-15T10:08:36;3.40;;;2.47;;
8317;SDS011;4196;48.926;8.964;2024-01-15T10:11:26;4.43;;;1.93;;
8317;SDS011;4196;48.926;8.964;2024-01-15T10:14:12;3.03;;;2.10;;
8317;SDS011;4196;48.926;8.964;2024-01-15T10:17:11;2.53;;;1.80;;
8317;SDS011;4196;48.926;8.964;2024-01-15T10:19:58;3.20;;;1.70;;
8317;SDS011;4196;48.926;8.964;2024-01-15T10:22:48;3.83;;;2.73;;
8317;SDS011;4196;48.926;8.964;2024-01-15T10:25:37;4.20;;;2.40;;
8317;SDS011;4196;48.926;8.964;2024-01-15T10:28:25;3.50;;;2.17;;
8317;SDS011;4196;48.926;8.964;2024-01-15T10:31:12;2.93;;;2.10;;
8317;SDS011;4196;48.926;8.964;2024-01-15T10:34:12;17.67;;;2.90;;
8317;SDS011;4196;48.926;8.964;2024-01-15T10:36:59;3.30;;;2.00;;
8317;SDS011;4196;48.926;8.964;2024-01-15T10:39:49;4.20;;;2.40;;
8317;SDS011;4196;48.926;8.964;2024-01-15T10:42:36;3.33;;;2.03;;
8317;SDS011;4196;48.926;8.964;2024-01-15T10:45:26;4.40;;;2.60;;
8317;SDS011;4196;48.926;8.964;2024-01-15T10:48:18;4.40;;;3.10;;
8317;SDS011;4196;48.926;8.964;2024-01-15T10:51:06;4.53;;;2.87;;
8317;SDS011;4196;48.926;8.964;2024-01-15T10:53:57;3.70;;;2.37;;
8317;SDS011;4196;48.926;8.964;2024-01-15T10:56:46;4.80;;;2.93;;
8317;SDS011;4196;48.926;8.964;2024-01-15T10:59:33;4.33;;;2.60;;
8317;SDS011;4196;48.926;8.964;2024-01-15T11:02:22;3.33;;;2.40;;
8317;SDS011;4196;48.926;8.964;2024-01-15T11:05:12;6.67;;;4.67;;
8317;SDS011;4196;48.926;8.964;2024-01-15T11:07:59;6.47;;;3.13;;
8317;SDS011;4196;48.926;8.964;2024-01-15T11:10:48;6.27;;;2.90;;
8317;SDS011;4196;48.926;8.964;2024-01-15T11:16:24;7.27;;;3.40;;
8317;SDS011;4196;48.926;8.964;2024-01-15T11:25:20;6.97;;;3.47;;
8317;SDS011;4196;48.926;8.964;2024-01-15T11:28:07;6.57;;;3.27;;
8317;SDS011;4196;48.926;8.964;2024-01-15T11:30:54;5.43;;;3.07;;
8317;SDS011;4196;48.926;8.964;2024-01-15T11:33:47;3.67;;;2.63;;
8317;SDS011;4196;48.926;8.964;2024-01-15T11:37:00;4.73;;;3.07;;
8317;SDS011;4196;48.926;8.964;2024-01-15T11:39:42;4.33;;;2.73;;
8317;SDS011;4196;48.926;8.964;2024-01-15T11:42:32;5.53;;;2.93;;
8317;SDS011;4196;48.926;8.964;2024-01-15T11:45:19;3.33;;;2.40;;
8317;SDS011;4196;48.926;8.964;2024-01-15T11:48:10;4.10;;;2.33;;
8317;SDS011;4196;48.926;8.964;2024-01-15T11:50:58;2.60;;;2.20;;
8317;SDS011;4196;48.926;8.964;2024-01-15T11:53:47;5.10;;;2.93;;
8317;SDS011;4196;48.926;8.964;2024-01-15T11:56:37;4.33;;;2.43;;
8317;SDS011;4196;48.926;8.964;2024-01-15T11:59:24;5.93;;;2.33;;
8317;SDS011;4196;48.926;8.964;2024-01-15T12:02:10;4.10;;;2.50;;
8317;SDS011;4196;48.926;8.964;2024-01-15T12:04:59;2.83;;;2.40;;
8317;SDS011;4196;48.926;8.964;2024-01-15T12:07:49;4.20;;;2.43;;
8317;SDS011;4196;48.926;8.964;2024-01-15T12:10:37;4.03;;;2.37;;
8317;SDS011;4196;48.926;8.964;2024-01-15T12:13:24;4.57;;;2.57;;
8317;SDS011;4196;48.926;8.964;2024-01-15T12:16:11;4.93;;;3.43;;
8317;SDS011;4196;48.926;8.964;2024-01-15T12:19:03;3.80;;;2.57;;
8317;SDS011;4196;48.926;8.964;2024-01-15T12:21:52;7.07;;;2.40;;
8317;SDS011;4196;48.926;8.964;2024-01-15T12:24:39;3.37;;;2.03;;
8317;SDS011;4196;48.926;8.964;2024-01-15T12:27:26;5.03;;;2.33;;
8317;SDS011;4196;48.926;8.964;2024-01-15T12:30:13;4.10;;;2.57;;
8317;SDS011;4196;48.926;8.964;2024-01-15T12:33:03;4.07;;;2.57;;
8317;SDS011;4196;48.926;8.964;2024-01-15T12:35:54;7.73;;;3.43;;
8317;SDS011;4196;48.926;8.964;2024-01-15T12:38:41;4.17;;;3.30;;
8317;SDS011;4196;48.926;8.964;2024-01-15T12:41:30;6.23;;;2.87;;
8317;SDS011;4196;48.926;8.964;2024-01-15T12:44:19;6.97;;;3.77;;
8317;SDS011;4196;48.926;8.964;2024-01-15T12:47:11;10.47;;;5.20;;
8317;SDS011;4196;48.926;8.964;2024-01-15T12:50:01;7.53;;;3.73;;
8317;SDS011;4196;48.926;8.964;2024-01-15T12:57:23;2.93;;;1.97;;
8317;SDS011;4196;48.926;8.964;2024-01-15T13:00:10;7.10;;;2.80;;
8317;SDS011;4196;48.926;8.964;2024-01-15T13:03:00;5.37;;;3.30;;
8317;SDS011;4196;48.926;8.964;2024-01-15T13:05:49;6.57;;;4.03;;
8317;SDS011;4196;48.926;8.964;2024-01-15T13:08:45;4.53;;;3.37;;
8317;SDS011;4196;48.926;8.964;2024-01-15T13:11:32;4.87;;;2.30;;
8317;SDS011;4196;48.926;8.964;2024-01-15T13:14:19;7.17;;;3.33;;
8317;SDS011;4196;48.926;8.964;2024-01-15T13:17:06;4.63;;;3.10;;
8317;SDS011;4196;48.926;8.964;2024-01-15T13:19:52;4.93;;;3.30;;
8317;SDS011;4196;48.926;8.964;2024-01-15T13:22:39;8.27;;;3.17;;
8317;SDS011;4196;48.926;8.964;2024-01-15T13:25:27;6.20;;;3.30;;
8317;SDS011;4196;48.926;8.964;2024-01-15T13:28:13;6.97;;;3.60;;
8317;SDS011;4196;48.926;8.964;2024-01-15T13:31:00;4.37;;;2.33;;
8317;SDS011;4196;48.926;8.964;2024-01-15T13:33:47;5.30;;;3.43;;
8317;SDS011;4196;48.926;8.964;2024-01-15T13:36:34;4.60;;;2.80;;
8317;SDS011;4196;48.926;8.964;2024-01-15T13:39:23;6.40;;;3.50;;
8317;SDS011;4196;48.926;8.964;2024-01-15T13:42:10;11.80;;;8.37;;
8317;SDS011;4196;48.926;8.964;2024-01-15T13:44:58;8.93;;;3.70;;
8317;SDS011;4196;48.926;8.964;2024-01-15T13:47:44;5.27;;;3.30;;
8317;SDS011;4196;48.926;8.964;2024-01-15T13:50:31;11.73;;;4.70;;
8317;SDS011;4196;48.926;8.964;2024-01-15T13:53:18;11.27;;;4.80;;
8317;SDS011;4196;48.926;8.964;2024-01-15T13:56:05;7.70;;;3.43;;
8317;SDS011;4196;48.926;8.964;2024-01-15T13:58:52;7.33;;;3.93;;
8317;SDS011;4196;48.926;8.964;2024-01-15T14:01:38;5.17;;;3.57;;
8317;SDS011;4196;48.926;8.964;2024-01-15T14:04:25;7.90;;;3.67;;
8317;SDS011;4196;48.926;8.964;2024-01-15T14:07:13;7.90;;;4.33;;
8317;SDS011;4196;48.926;8.964;2024-01-15T14:09:59;5.33;;;3.23;;
8317;SDS011;4196;48.926;8.964;2024-01-15T14:12:46;4.77;;;3.70;;
8317;SDS011;4196;48.926;8.964;2024-01-15T14:15:33;7.23;;;3.67;;
8317;SDS011;4196;48.926;8.964;2024-01-15T14:18:19;6.87;;;3.67;;
8317;SDS011;4196;48.926;8.964;2024-01-15T14:21:09;5.07;;;3.23;;
8317;SDS011;4196;48.926;8.964;2024-01-15T14:23:57;6.43;;;3.30;;
8317;SDS011;4196;48.926;8.964;2024-01-15T14:26:43;6.57;;;4.10;;
8317;SDS011;4196;48.926;8.964;2024-01-15T14:29:29;5.67;;;3.33;;
8317;SDS011;4196;48.926;8.964;2024-01-15T14:32:16;10.17;;;5.20;;
8317;SDS011;4196;48.926;8.964;2024-01-15T14:35:02;6.13;;;3.50;;
8317;SDS011;4196;48.926;8.964;2024-01-15T14:37:51;7.37;;;4.50;;
8317;SDS011;4196;48.926;8.964;2024-01-15T14:40:37;8.97;;;4.33;;
8317;SDS011;4196;48.926;8.964;2024-01-15T14:43:24;7.13;;;4.70;;
8317;SDS011;4196;48.926;8.964;2024-01-15T14:46:10;9.70;;;4.40;;
8317;SDS011;4196;48.926;8.964;2024-01-15T14:48:57;5.77;;;3.70;;
8317;SDS011;4196;48.926;8.964;2024-01-15T14:51:45;7.93;;;4.63;;
8317;SDS011;4196;48.926;8.964;2024-01-15T14:54:32;5.83;;;3.63;;
8317;SDS011;4196;48.926;8.964;2024-01-15T14:57:18;9.87;;;5.03;;
8317;SDS011;4196;48.926;8.964;2024-01-15T15:00:05;9.80;;;4.37;;
8317;SDS011;4196;48.926;8.964;2024-01-15T15:02:55;10.03;;;4.97;;
8317;SDS011;4196;48.926;8.964;2024-01-15T15:05:42;8.77;;;4.60;;
8317;SDS011;4196;48.926;8.964;2024-01-15T15:08:29;9.67;;;5.10;;
8317;SDS011;4196;48.926;8.964;2024-01-15T15:11:18;11.30;;;4.17;;
8317;SDS011;4196;48.926;8.964;2024-01-15T15:14:04;10.20;;;4.43;;
8317;SDS011;4196;48.926;8.964;2024-01-15T15:16:51;6.90;;;4.07;;
8317;SDS011;4196;48.926;8.964;2024-01-15T15:19:38;8.13;;;4.97;;
8317;SDS011;4196;48.926;8.964;2024-01-15T15:22:28;9.80;;;4.23;;
8317;SDS011;4196;48.926;8.964;2024-01-15T15:25:15;11.17;;;5.63;;
8317;SDS011;4196;48.926;8.964;2024-01-15T15:28:02;6.50;;;5.03;;
8317;SDS011;4196;48.926;8.964;2024-01-15T15:30:51;12.47;;;6.50;;
8317;SDS011;4196;48.926;8.964;2024-01-15T15:33:38;11.97;;;6.70;;
8317;SDS011;4196;48.926;8.964;2024-01-15T15:36:25;13.00;;;6.70;;
8317;SDS011;4196;48.926;8.964;2024-01-15T15:39:11;7.07;;;3.77;;
8317;SDS011;4196;48.926;8.964;2024-01-15T15:42:01;8.20;;;4.70;;
8317;SDS011;4196;48.926;8.964;2024-01-15T15:44:49;9.33;;;6.23;;
8317;SDS011;4196;48.926;8.964;2024-01-15T15:47:39;7.70;;;4.70;;
8317;SDS011;4196;48.926;8.964;2024-01-15T15:50:26;9.93;;;4.03;;
8317;SDS011;4196;48.926;8.964;2024-01-15T15:53:15;11.40;;;5.37;;
8317;SDS011;4196;48.926;8.964;2024-01-15T15:56:01;10.40;;;4.33;;
8317;SDS011;4196;48.926;8.964;2024-01-15T15:58:50;7.13;;;3.87;;
8317;SDS011;4196;48.926;8.964;2024-01-15T16:01:36;7.47;;;4.37;;
8317;SDS011;4196;48.926;8.964;2024-01-15T16:04:23;8.47;;;4.90;;
8317;SDS011;4196;48.926;8.964;2024-01-15T16:07:10;8.00;;;4.43;;
8317;SDS011;4196;48.926;8.964;2024-01-15T16:10:01;9.70;;;4.93;;
8317;SDS011;4196;48.926;8.964;2024-01-15T16:12:53;9.67;;;4.90;;
8317;SDS011;4196;48.926;8.964;2024-01-15T16:15:45;12.20;;;5.67;;
8317;SDS011;4196;48.926;8.964;2024-01-15T16:18:59;8.73;;;4.20;;
8317;SDS011;4196;48.926;8.964;2024-01-15T16:22:06;9.27;;;4.10;;
8317;SDS011;4196;48.926;8.964;2024-01-15T16:25:13;7.43;;;4.60;;
8317;SDS011;4196;48.926;8.964;2024-01-15T16:28:00;9.30;;;5.13;;
8317;SDS011;4196;48.926;8.964;2024-01-15T16:30:47;8.63;;;3.67;;
8317;SDS011;4196;48.926;8.964;2024-01-15T16:33:40;7.53;;;5.00;;
8317;SDS011;4196;48.926;8.964;2024-01-15T16:36:30;10.17;;;4.90;;
8317;SDS011;4196;48.926;8.964;2024-01-15T16:39:20;6.67;;;3.40;;
8317;SDS011;4196;48.926;8.964;2024-01-15T16:42:09;6.57;;;3.63;;
8317;SDS011;4196;48.926;8.964;2024-01-15T16:44:58;6.03;;;4.10;;
8317;SDS011;4196;48.926;8.964;2024-01-15T16:47:47;8.53;;;4.10;;
8317;SDS011;4196;48.926;8.964;2024-01-15T16:50:34;14.43;;;5.27;;
8317;SDS011;4196;48.926;8.964;2024-01-15T16:53:21;9.07;;;4.20;;
8317;SDS011;4196;48.926;8.964;2024-01-15T16:56:08;7.70;;;3.87;;
8317;SDS011;4196;48.926;8.964;2024-01-15T16:58:55;8.60;;;5.37;;
8317;SDS011;4196;48.926;8.964;2024-01-15T17:01:42;9.10;;;4.33;;
8317;SDS011;4196;48.926;8.964;2024-01-15T17:04:29;6.33;;;3.43;;
8317;SDS011;4196;48.926;8.964;2024-01-15T17:07:16;8.10;;;4.93;;
8317;SDS011;4196;48.926;8.964;2024-01-15T17:10:03;9.17;;;5.37;;
8317;SDS011;4196;48.926;8.964;2024-01-15T17:12:50;27.40;;;13.07;;
8317;SDS011;4196;48.926;8.964;2024-01-15T17:15:36;5.27;;;4.13;;
8317;SDS011;4196;48.926;8.964;2024-01-15T17:18:23;9.00;;;4.50;;
8317;SDS011;4196;48.926;8.964;2024-01-15T17:21:10;8.53;;;4.90;;
8317;SDS011;4196;48.926;8.964;2024-01-15T17:23:57;7.43;;;3.67;;
8317;SDS011;4196;48.926;8.964;2024-01-15T17:26:44;7.53;;;4.10;;
8317;SDS011;4196;48.926;8.964;2024-01-15T17:29:32;8.67;;;3.80;;